sensor_id;sensor_type;location;lat;lon;timestamp;pressure;altitude;pressure_sealevel;temperature;humidity
61292;BME280;47165;42.664;23.368;2023-05-22T00:01:00;94778.56;;;16.31;61.29
61292;BME280;47165;42.664;23.368;2023-05-22T00:03:27;94783.31;;;16.37;61.33
61292;BME280;47165;42.664;23.368;2023-05-22T00:05:53;94777.84;;;16.28;61.81
61292;BME280;47165;42.664;23.368;2023-05-22T00:08:24;94770.19;;;16.25;61.64
61292;BME280;47165;42.664;23.368;2023-05-22T00:10:49;94776.28;;;16.26;61.51
61292;BME280;47165;42.664;23.368;2023-05-22T00:13:15;94782.13;;;16.29;62.05
61292;BME280;47165;42.664;23.368;2023-05-22T00:15:40;94767.75;;;16.34;61.95
61292;BME280;47165;42.664;23.368;2023-05-22T00:18:06;94776.81;;;16.41;61.45
61292;BME280;47165;42.664;23.368;2023-05-22T00:20:32;94776.31;;;16.47;61.67
61292;BME280;47165;42.664;23.368;2023-05-22T00:23:05;94773.28;;;16.52;61.46
61292;BME280;47165;42.664;23.368;2023-05-22T00:25:34;94768.94;;;16.50;61.39
61292;BME280;47165;42.664;23.368;2023-05-22T00:28:00;94769.47;;;16.44;61.73
61292;BME280;47165;42.664;23.368;2023-05-22T00:30:25;94775.59;;;16.45;61.97
61292;BME280;47165;42.664;23.368;2023-05-22T00:32:51;94771.59;;;16.50;61.76
61292;BME280;47165;42.664;23.368;2023-05-22T00:35:16;94773.97;;;16.54;61.41
61292;BME280;47165;42.664;23.368;2023-05-22T00:37:41;94767.72;;;16.55;61.17
61292;BME280;47165;42.664;23.368;2023-05-22T00:40:09;94772.88;;;16.56;61.11
61292;BME280;47165;42.664;23.368;2023-05-22T00:42:35;94780.53;;;16.59;61.35
61292;BME280;47165;42.664;23.368;2023-05-22T00:45:00;94779.03;;;16.66;61.01
61292;BME280;47165;42.664;23.368;2023-05-22T00:47:25;94777.38;;;16.65;60.99
61292;BME280;47165;42.664;23.368;2023-05-22T00:49:51;94782.25;;;16.70;60.94
61292;BME280;47165;42.664;23.368;2023-05-22T00:52:18;94782.84;;;16.74;60.75
61292;BME280;47165;42.664;23.368;2023-05-22T00:54:44;94782.56;;;16.77;60.60
61292;BME280;47165;42.664;23.368;2023-05-22T00:57:10;94778.00;;;16.79;60.53
61292;BME280;47165;42.664;23.368;2023-05-22T00:59:35;94777.28;;;16.77;60.47
61292;BME280;47165;42.664;23.368;2023-05-22T01:02:02;94772.72;;;16.79;60.39
61292;BME280;47165;42.664;23.368;2023-05-22T01:04:27;94773.34;;;16.82;60.35
61292;BME280;47165;42.664;23.368;2023-05-22T01:06:56;94773.34;;;16.82;60.24
61292;BME280;47165;42.664;23.368;2023-05-22T01:09:23;94769.03;;;16.81;60.45
61292;BME280;47165;42.664;23.368;2023-05-22T01:15:16;94779.63;;;16.91;60.18
61292;BME280;47165;42.664;23.368;2023-05-22T01:17:38;94770.06;;;16.90;60.20
61292;BME280;47165;42.664;23.368;2023-05-22T01:20:17;94767.25;;;16.92;60.22
61292;BME280;47165;42.664;23.368;2023-05-22T01:25:55;94766.03;;;16.96;60.08
61292;BME280;47165;42.664;23.368;2023-05-22T01:31:30;94755.84;;;16.81;60.45
61292;BME280;47165;42.664;23.368;2023-05-22T01:33:59;94762.66;;;16.84;60.46
61292;BME280;47165;42.664;23.368;2023-05-22T01:36:28;94763.63;;;16.83;60.44
61292;BME280;47165;42.664;23.368;2023-05-22T01:38:57;94756.09;;;16.78;60.62
61292;BME280;47165;42.664;23.368;2023-05-22T01:41:27;94755.25;;;16.78;60.60
61292;BME280;47165;42.664;23.368;2023-05-22T01:43:53;94753.09;;;16.41;61.40
61292;BME280;47165;42.664;23.368;2023-05-22T01:46:19;94753.97;;;16.30;61.91
61292;BME280;47165;42.664;23.368;2023-05-22T01:48:44;94753.06;;;16.20;62.36
61292;BME280;47165;42.664;23.368;2023-05-22T01:51:22;94752.84;;;16.23;62.44
61292;BME280;47165;42.664;23.368;2023-05-22T01:56:44;94761.31;;;16.26;62.58
61292;BME280;47165;42.664;23.368;2023-05-22T01:59:31;94749.69;;;16.29;62.29
61292;BME280;47165;42.664;23.368;2023-05-22T02:02:03;94754.84;;;16.31;62.19
61292;BME280;47165;42.664;23.368;2023-05-22T02:04:30;94757.47;;;16.31;62.25
61292;BME280;47165;42.664;23.368;2023-05-22T02:06:57;94754.13;;;16.28;62.20
61292;BME280;47165;42.664;23.368;2023-05-22T02:09:27;94756.31;;;16.23;62.27
61292;BME280;47165;42.664;23.368;2023-05-22T02:11:54;94753.22;;;16.18;62.49
61292;BME280;47165;42.664;23.368;2023-05-22T02:14:19;94756.56;;;16.20;62.25
61292;BME280;47165;42.664;23.368;2023-05-22T02:16:45;94761.63;;;16.12;62.09
61292;BME280;47165;42.664;23.368;2023-05-22T02:19:12;94759.63;;;16.04;62.46
61292;BME280;47165;42.664;23.368;2023-05-22T02:21:39;94754.75;;;16.00;62.39
61292;BME280;47165;42.664;23.368;2023-05-22T02:24:05;94757.28;;;15.90;63.04
61292;BME280;47165;42.664;23.368;2023-05-22T02:26:30;94747.16;;;15.85;63.06
61292;BME280;47165;42.664;23.368;2023-05-22T02:28:56;94753.34;;;15.84;62.99
61292;BME280;47165;42.664;23.368;2023-05-22T02:31:21;94759.59;;;15.83;63.34
61292;BME280;47165;42.664;23.368;2023-05-22T02:33:46;94765.31;;;15.88;63.55
61292;BME280;47165;42.664;23.368;2023-05-22T02:36:12;94760.66;;;15.81;63.04
61292;BME280;47165;42.664;23.368;2023-05-22T02:38:38;94770.25;;;15.70;63.28
61292;BME280;47165;42.664;23.368;2023-05-22T02:41:04;94759.66;;;15.49;64.57
61292;BME280;47165;42.664;23.368;2023-05-22T02:43:30;94759.22;;;15.44;64.53
61292;BME280;47165;42.664;23.368;2023-05-22T02:45:55;94768.31;;;15.40;64.89
61292;BME280;47165;42.664;23.368;2023-05-22T02:48:21;94754.56;;;15.37;64.90
61292;BME280;47165;42.664;23.368;2023-05-22T02:50:46;94744.28;;;15.22;65.13
61292;BME280;47165;42.664;23.368;2023-05-22T02:53:15;94755.50;;;15.36;64.97
61292;BME280;47165;42.664;23.368;2023-05-22T02:55:41;94760.41;;;15.40;64.51
61292;BME280;47165;42.664;23.368;2023-05-22T02:58:07;94755.50;;;15.36;64.43
61292;BME280;47165;42.664;23.368;2023-05-22T03:00:37;94758.97;;;15.36;64.24
61292;BME280;47165;42.664;23.368;2023-05-22T03:03:04;94753.00;;;15.23;64.93
61292;BME280;47165;42.664;23.368;2023-05-22T03:05:29;94751.56;;;15.30;64.88
61292;BME280;47165;42.664;23.368;2023-05-22T03:07:56;94756.34;;;15.36;64.54
61292;BME280;47165;42.664;23.368;2023-05-22T03:10:22;94752.53;;;15.29;64.47
61292;BME280;47165;42.664;23.368;2023-05-22T03:12:47;94752.19;;;15.22;64.14
61292;BME280;47165;42.664;23.368;2023-05-22T03:15:13;94757.56;;;15.21;65.09
61292;BME280;47165;42.664;23.368;2023-05-22T03:17:38;94751.69;;;15.17;64.39
61292;BME280;47165;42.664;23.368;2023-05-22T03:20:04;94764.00;;;15.17;65.60
61292;BME280;47165;42.664;23.368;2023-05-22T03:22:31;94759.47;;;14.96;66.62
61292;BME280;47165;42.664;23.368;2023-05-22T03:24:56;94758.53;;;14.86;67.05
61292;BME280;47165;42.664;23.368;2023-05-22T03:27:22;94765.47;;;14.87;66.91
61292;BME280;47165;42.664;23.368;2023-05-22T03:29:47;94751.00;;;14.93;66.33
61292;BME280;47165;42.664;23.368;2023-05-22T03:32:12;94761.88;;;14.88;66.93
61292;BME280;47165;42.664;23.368;2023-05-22T03:34:39;94751.84;;;14.82;66.92
61292;BME280;47165;42.664;23.368;2023-05-22T03:37:05;94759.63;;;14.83;67.08
61292;BME280;47165;42.664;23.368;2023-05-22T03:39:30;94747.06;;;14.87;66.60
61292;BME280;47165;42.664;23.368;2023-05-22T03:41:56;94752.69;;;14.94;65.80
61292;BME280;47165;42.664;23.368;2023-05-22T03:44:21;94760.19;;;14.98;66.56
61292;BME280;47165;42.664;23.368;2023-05-22T03:46:47;94757.56;;;14.98;66.48
61292;BME280;47165;42.664;23.368;2023-05-22T03:49:12;94752.44;;;14.97;66.35
61292;BME280;47165;42.664;23.368;2023-05-22T03:51:37;94760.56;;;15.05;66.21
61292;BME280;47165;42.664;23.368;2023-05-22T03:54:03;94755.44;;;15.03;66.28
61292;BME280;47165;42.664;23.368;2023-05-22T03:56:28;94766.53;;;15.07;66.20
61292;BME280;47165;42.664;23.368;2023-05-22T03:58:54;94763.06;;;15.06;66.17
61292;BME280;47165;42.664;23.368;2023-05-22T04:01:20;94766.19;;;15.00;66.27
61292;BME280;47165;42.664;23.368;2023-05-22T04:03:46;94770.47;;;14.90;66.82
61292;BME280;47165;42.664;23.368;2023-05-22T04:06:11;94777.78;;;14.75;67.45
61292;BME280;47165;42.664;23.368;2023-05-22T04:08:38;94768.56;;;14.92;66.93
61292;BME280;47165;42.664;23.368;2023-05-22T04:11:03;94766.41;;;14.86;66.98
61292;BME280;47165;42.664;23.368;2023-05-22T04:13:30;94767.63;;;14.93;66.50
61292;BME280;47165;42.664;23.368;2023-05-22T04:15:55;94764.03;;;15.05;66.51
61292;BME280;47165;42.664;23.368;2023-05-22T04:18:21;94763.56;;;15.12;66.15
61292;BME280;47165;42.664;23.368;2023-05-22T04:20:47;94778.72;;;15.19;66.41
61292;BME280;47165;42.664;23.368;2023-05-22T04:23:12;94776.94;;;15.20;66.79
61292;BME280;47165;42.664;23.368;2023-05-22T04:25:38;94756.94;;;15.28;66.26
61292;BME280;47165;42.664;23.368;2023-05-22T04:28:03;94775.69;;;15.46;65.62
61292;BME280;47165;42.664;23.368;2023-05-22T04:30:31;94768.25;;;15.52;65.33
61292;BME280;47165;42.664;23.368;2023-05-22T04:33:02;94782.13;;;15.65;65.03
61292;BME280;47165;42.664;23.368;2023-05-22T04:35:29;94785.00;;;15.73;64.91
61292;BME280;47165;42.664;23.368;2023-05-22T04:37:56;94766.44;;;15.75;64.50
61292;BME280;47165;42.664;23.368;2023-05-22T04:40:21;94778.47;;;15.88;64.41
61292;BME280;47165;42.664;23.368;2023-05-22T04:42:46;94769.63;;;15.89;64.19
61292;BME280;47165;42.664;23.368;2023-05-22T04:45:12;94778.66;;;16.08;63.90
61292;BME280;47165;42.664;23.368;2023-05-22T04:47:38;94783.22;;;16.06;64.56
61292;BME280;47165;42.664;23.368;2023-05-22T04:50:06;94772.22;;;16.01;65.45
61292;BME280;47165;42.664;23.368;2023-05-22T04:52:31;94770.25;;;16.14;64.86
61292;BME280;47165;42.664;23.368;2023-05-22T04:54:57;94772.38;;;16.20;64.91
61292;BME280;47165;42.664;23.368;2023-05-22T04:57:22;94774.03;;;16.21;64.97
61292;BME280;47165;42.664;23.368;2023-05-22T04:59:49;94778.91;;;16.05;65.03
61292;BME280;47165;42.664;23.368;2023-05-22T05:02:16;94768.00;;;16.31;64.10
61292;BME280;47165;42.664;23.368;2023-05-22T05:04:41;94770.06;;;16.48;63.65
61292;BME280;47165;42.664;23.368;2023-05-22T05:07:07;94778.16;;;16.56;63.04
61292;BME280;47165;42.664;23.368;2023-05-22T05:09:33;94779.56;;;16.60;62.89
61292;BME280;47165;42.664;23.368;2023-05-22T05:11:59;94774.59;;;16.67;62.79
61292;BME280;47165;42.664;23.368;2023-05-22T05:14:24;94787.00;;;16.76;62.60
61292;BME280;47165;42.664;23.368;2023-05-22T05:16:50;94789.75;;;16.86;62.13
61292;BME280;47165;42.664;23.368;2023-05-22T05:19:19;94790.28;;;16.89;61.84
61292;BME280;47165;42.664;23.368;2023-05-22T05:21:46;94789.47;;;16.89;61.80
61292;BME280;47165;42.664;23.368;2023-05-22T05:24:13;94787.53;;;16.91;61.94
61292;BME280;47165;42.664;23.368;2023-05-22T05:26:38;94785.59;;;16.93;61.71
61292;BME280;47165;42.664;23.368;2023-05-22T05:29:03;94779.81;;;16.99;61.41
61292;BME280;47165;42.664;23.368;2023-05-22T05:31:29;94780.97;;;17.06;61.15
61292;BME280;47165;42.664;23.368;2023-05-22T05:33:54;94782.09;;;17.14;60.96
61292;BME280;47165;42.664;23.368;2023-05-22T05:36:23;94788.50;;;17.21;60.46
61292;BME280;47165;42.664;23.368;2023-05-22T05:38:49;94782.97;;;17.24;60.42
61292;BME280;47165;42.664;23.368;2023-05-22T05:41:14;94784.09;;;17.31;60.11
61292;BME280;47165;42.664;23.368;2023-05-22T05:43:40;94789.81;;;17.36;59.61
61292;BME280;47165;42.664;23.368;2023-05-22T05:46:05;94788.69;;;17.39;59.38
61292;BME280;47165;42.664;23.368;2023-05-22T05:48:31;94784.69;;;17.44;58.48
61292;BME280;47165;42.664;23.368;2023-05-22T05:50:56;94781.38;;;17.52;57.95
61292;BME280;47165;42.664;23.368;2023-05-22T05:53:22;94783.59;;;17.57;57.51
61292;BME280;47165;42.664;23.368;2023-05-22T05:55:47;94785.72;;;17.63;57.71
61292;BME280;47165;42.664;23.368;2023-05-22T05:58:13;94781.94;;;17.65;57.16
61292;BME280;47165;42.664;23.368;2023-05-22T06:00:38;94788.94;;;17.76;57.00
61292;BME280;47165;42.664;23.368;2023-05-22T06:03:06;94785.59;;;17.74;56.88
61292;BME280;47165;42.664;23.368;2023-05-22T06:05:31;94786.00;;;17.79;56.84
61292;BME280;47165;42.664;23.368;2023-05-22T06:07:57;94788.00;;;17.87;55.17
61292;BME280;47165;42.664;23.368;2023-05-22T06:10:23;94793.88;;;17.91;55.11
61292;BME280;47165;42.664;23.368;2023-05-22T06:12:48;94790.25;;;17.92;54.85
61292;BME280;47165;42.664;23.368;2023-05-22T06:15:14;94792.06;;;18.01;54.75
61292;BME280;47165;42.664;23.368;2023-05-22T06:17:39;94789.84;;;18.06;54.84
61292;BME280;47165;42.664;23.368;2023-05-22T06:20:06;94793.75;;;18.12;55.14
61292;BME280;47165;42.664;23.368;2023-05-22T06:22:32;94793.59;;;18.13;54.36
61292;BME280;47165;42.664;23.368;2023-05-22T06:24:58;94790.41;;;18.19;54.62
61292;BME280;47165;42.664;23.368;2023-05-22T06:27:23;94787.34;;;18.24;54.82
61292;BME280;47165;42.664;23.368;2023-05-22T06:29:51;94784.00;;;18.32;53.09
61292;BME280;47165;42.664;23.368;2023-05-22T06:32:17;94785.09;;;18.39;50.97
61292;BME280;47165;42.664;23.368;2023-05-22T06:34:43;94783.16;;;18.50;51.03
61292;BME280;47165;42.664;23.368;2023-05-22T06:37:10;94785.22;;;18.66;50.19
61292;BME280;47165;42.664;23.368;2023-05-22T06:39:36;94782.69;;;18.75;51.53
61292;BME280;47165;42.664;23.368;2023-05-22T06:42:01;94788.13;;;18.83;51.56
61292;BME280;47165;42.664;23.368;2023-05-22T06:44:27;94777.50;;;18.93;51.41
61292;BME280;47165;42.664;23.368;2023-05-22T06:46:52;94775.59;;;18.85;50.67
61292;BME280;47165;42.664;23.368;2023-05-22T06:49:18;94771.91;;;19.05;48.60
61292;BME280;47165;42.664;23.368;2023-05-22T06:51:44;94790.22;;;19.26;49.19
61292;BME280;47165;42.664;23.368;2023-05-22T06:54:11;94785.72;;;19.37;50.20
61292;BME280;47165;42.664;23.368;2023-05-22T06:56:40;94792.34;;;19.50;49.83
61292;BME280;47165;42.664;23.368;2023-05-22T06:59:06;94783.72;;;19.66;50.19
61292;BME280;47165;42.664;23.368;2023-05-22T07:01:32;94770.50;;;19.66;49.52
61292;BME280;47165;42.664;23.368;2023-05-22T07:03:58;94784.94;;;19.82;48.71
61292;BME280;47165;42.664;23.368;2023-05-22T07:06:29;94780.88;;;19.87;48.13
61292;BME280;47165;42.664;23.368;2023-05-22T07:08:58;94784.97;;;20.00;47.77
61292;BME280;47165;42.664;23.368;2023-05-22T07:11:24;94782.31;;;20.00;48.13
61292;BME280;47165;42.664;23.368;2023-05-22T07:13:50;94780.72;;;20.07;47.01
61292;BME280;47165;42.664;23.368;2023-05-22T07:16:15;94776.09;;;20.09;47.66
61292;BME280;47165;42.664;23.368;2023-05-22T07:18:41;94786.94;;;20.16;48.09
61292;BME280;47165;42.664;23.368;2023-05-22T07:21:06;94773.91;;;20.22;47.90
61292;BME280;47165;42.664;23.368;2023-05-22T07:23:32;94770.88;;;20.35;48.41
61292;BME280;47165;42.664;23.368;2023-05-22T07:25:57;94778.06;;;20.43;48.04
61292;BME280;47165;42.664;23.368;2023-05-22T07:28:22;94782.44;;;20.52;47.85
61292;BME280;47165;42.664;23.368;2023-05-22T07:30:48;94780.03;;;20.59;48.08
61292;BME280;47165;42.664;23.368;2023-05-22T07:33:13;94775.13;;;20.64;48.46
61292;BME280;47165;42.664;23.368;2023-05-22T07:35:39;94783.44;;;20.69;46.96
61292;BME280;47165;42.664;23.368;2023-05-22T07:38:04;94777.06;;;20.80;47.49
61292;BME280;47165;42.664;23.368;2023-05-22T07:40:30;94768.16;;;20.89;47.15
61292;BME280;47165;42.664;23.368;2023-05-22T07:42:55;94778.13;;;20.95;46.94
61292;BME280;47165;42.664;23.368;2023-05-22T07:45:20;94771.66;;;20.98;47.09
61292;BME280;47165;42.664;23.368;2023-05-22T07:47:46;94772.44;;;20.82;46.47
61292;BME280;47165;42.664;23.368;2023-05-22T07:50:11;94772.53;;;20.98;46.81
61292;BME280;47165;42.664;23.368;2023-05-22T07:52:37;94775.72;;;21.10;46.67
61292;BME280;47165;42.664;23.368;2023-05-22T07:55:02;94773.41;;;21.07;46.52
61292;BME280;47165;42.664;23.368;2023-05-22T07:57:28;94774.91;;;21.09;46.35
61292;BME280;47165;42.664;23.368;2023-05-22T07:59:54;94776.97;;;21.24;46.12
61292;BME280;47165;42.664;23.368;2023-05-22T08:02:19;94771.75;;;21.14;44.84
61292;BME280;47165;42.664;23.368;2023-05-22T08:04:46;94765.53;;;21.23;44.64
61292;BME280;47165;42.664;23.368;2023-05-22T08:07:13;94746.47;;;21.36;45.55
61292;BME280;47165;42.664;23.368;2023-05-22T08:09:38;94760.66;;;21.45;44.37
61292;BME280;47165;42.664;23.368;2023-05-22T08:12:04;94776.69;;;21.69;45.14
61292;BME280;47165;42.664;23.368;2023-05-22T08:14:30;94773.00;;;21.54;43.16
61292;BME280;47165;42.664;23.368;2023-05-22T08:16:56;94770.22;;;21.64;43.07
61292;BME280;47165;42.664;23.368;2023-05-22T08:19:23;94774.25;;;21.84;43.05
61292;BME280;47165;42.664;23.368;2023-05-22T08:21:48;94767.97;;;21.94;43.40
61292;BME280;47165;42.664;23.368;2023-05-22T08:24:14;94774.31;;;22.09;43.82
61292;BME280;47165;42.664;23.368;2023-05-22T08:26:40;94763.03;;;22.15;42.72
61292;BME280;47165;42.664;23.368;2023-05-22T08:29:07;94767.72;;;22.29;42.28
61292;BME280;47165;42.664;23.368;2023-05-22T08:31:32;94780.66;;;22.24;41.82
61292;BME280;47165;42.664;23.368;2023-05-22T08:33:58;94755.91;;;22.40;40.02
61292;BME280;47165;42.664;23.368;2023-05-22T08:36:28;94759.06;;;22.68;40.08
61292;BME280;47165;42.664;23.368;2023-05-22T08:38:54;94757.56;;;22.74;39.90
61292;BME280;47165;42.664;23.368;2023-05-22T08:41:20;94759.06;;;22.77;39.90
61292;BME280;47165;42.664;23.368;2023-05-22T08:43:46;94762.06;;;22.57;38.36
61292;BME280;47165;42.664;23.368;2023-05-22T08:46:11;94753.09;;;22.75;36.53
61292;BME280;47165;42.664;23.368;2023-05-22T08:48:40;94751.38;;;22.90;36.34
61292;BME280;47165;42.664;23.368;2023-05-22T08:51:06;94752.50;;;23.20;35.86
61292;BME280;47165;42.664;23.368;2023-05-22T08:53:35;94744.47;;;23.37;35.61
61292;BME280;47165;42.664;23.368;2023-05-22T08:56:05;94750.13;;;23.34;35.57
61292;BME280;47165;42.664;23.368;2023-05-22T08:58:32;94755.25;;;23.43;36.29
61292;BME280;47165;42.664;23.368;2023-05-22T09:00:59;94755.59;;;23.48;35.33
61292;BME280;47165;42.664;23.368;2023-05-22T09:03:26;94744.03;;;23.56;34.12
61292;BME280;47165;42.664;23.368;2023-05-22T09:05:53;94746.50;;;23.66;34.62
61292;BME280;47165;42.664;23.368;2023-05-22T09:08:19;94743.28;;;23.79;34.66
61292;BME280;47165;42.664;23.368;2023-05-22T09:10:44;94755.59;;;23.88;35.18
61292;BME280;47165;42.664;23.368;2023-05-22T09:13:10;94746.31;;;23.67;34.77
61292;BME280;47165;42.664;23.368;2023-05-22T09:15:35;94746.41;;;23.90;36.34
61292;BME280;47165;42.664;23.368;2023-05-22T09:18:02;94738.00;;;24.02;35.71
61292;BME280;47165;42.664;23.368;2023-05-22T09:20:29;94739.00;;;24.01;35.57
61292;BME280;47165;42.664;23.368;2023-05-22T09:22:54;94728.44;;;24.07;34.51
61292;BME280;47165;42.664;23.368;2023-05-22T09:25:21;94734.16;;;24.27;34.92
61292;BME280;47165;42.664;23.368;2023-05-22T09:27:49;94741.69;;;24.47;35.57
61292;BME280;47165;42.664;23.368;2023-05-22T09:30:16;94735.19;;;24.49;34.57
61292;BME280;47165;42.664;23.368;2023-05-22T09:32:42;94736.34;;;24.70;34.80
61292;BME280;47165;42.664;23.368;2023-05-22T09:35:08;94737.78;;;24.58;33.59
61292;BME280;47165;42.664;23.368;2023-05-22T09:37:34;94731.75;;;24.79;34.46
61292;BME280;47165;42.664;23.368;2023-05-22T09:40:04;94737.31;;;24.92;32.85
61292;BME280;47165;42.664;23.368;2023-05-22T09:42:32;94740.19;;;24.44;33.90
61292;BME280;47165;42.664;23.368;2023-05-22T09:45:07;94734.22;;;24.65;32.81
61292;BME280;47165;42.664;23.368;2023-05-22T09:47:33;94732.06;;;24.61;34.25
61292;BME280;47165;42.664;23.368;2023-05-22T09:50:02;94743.78;;;24.37;35.15
61292;BME280;47165;42.664;23.368;2023-05-22T09:52:32;94740.97;;;24.30;34.94
61292;BME280;47165;42.664;23.368;2023-05-22T09:55:01;94738.28;;;24.07;32.91
61292;BME280;47165;42.664;23.368;2023-05-22T09:57:30;94750.16;;;24.27;33.93
61292;BME280;47165;42.664;23.368;2023-05-22T09:59:58;94744.41;;;24.39;34.21
61292;BME280;47165;42.664;23.368;2023-05-22T10:02:26;94755.06;;;24.16;36.06
61292;BME280;47165;42.664;23.368;2023-05-22T10:04:52;94746.41;;;23.90;35.41
61292;BME280;47165;42.664;23.368;2023-05-22T10:07:23;94746.75;;;23.87;36.76
61292;BME280;47165;42.664;23.368;2023-05-22T10:09:54;94750.16;;;23.73;37.47
61292;BME280;47165;42.664;23.368;2023-05-22T10:12:22;94748.47;;;23.72;37.86
61292;BME280;47165;42.664;23.368;2023-05-22T10:14:48;94744.16;;;23.71;37.29
61292;BME280;47165;42.664;23.368;2023-05-22T10:17:14;94752.47;;;23.68;38.05
61292;BME280;47165;42.664;23.368;2023-05-22T10:19:41;94744.56;;;23.52;38.14
61292;BME280;47165;42.664;23.368;2023-05-22T10:22:07;94741.63;;;23.38;39.05
61292;BME280;47165;42.664;23.368;2023-05-22T10:24:34;94745.28;;;23.37;38.46
61292;BME280;47165;42.664;23.368;2023-05-22T10:27:00;94750.16;;;23.17;38.70
61292;BME280;47165;42.664;23.368;2023-05-22T10:29:35;94748.41;;;22.93;40.02
61292;BME280;47165;42.664;23.368;2023-05-22T10:32:08;94768.41;;;22.48;40.55
61292;BME280;47165;42.664;23.368;2023-05-22T10:34:56;94794.19;;;21.80;46.21
61292;BME280;47165;42.664;23.368;2023-05-22T10:37:44;94806.53;;;22.06;51.28
61292;BME280;47165;42.664;23.368;2023-05-22T10:40:20;94811.97;;;21.19;55.45
61292;BME280;47165;42.664;23.368;2023-05-22T10:42:55;94798.31;;;21.14;56.13
61292;BME280;47165;42.664;23.368;2023-05-22T10:45:21;94789.72;;;21.20;55.83
61292;BME280;47165;42.664;23.368;2023-05-22T10:48:02;94784.31;;;21.30;57.62
61292;BME280;47165;42.664;23.368;2023-05-22T10:50:28;94791.75;;;21.53;60.43
61292;BME280;47165;42.664;23.368;2023-05-22T10:53:17;94771.88;;;21.65;60.54
61292;BME280;47165;42.664;23.368;2023-05-22T10:55:59;94778.41;;;21.87;60.42
61292;BME280;47165;42.664;23.368;2023-05-22T10:58:33;94767.00;;;22.03;62.03
61292;BME280;47165;42.664;23.368;2023-05-22T11:01:18;94764.16;;;22.21;61.19
61292;BME280;47165;42.664;23.368;2023-05-22T11:03:57;94760.41;;;22.32;59.70
61292;BME280;47165;42.664;23.368;2023-05-22T11:08:54;94763.75;;;22.58;55.99
61292;BME280;47165;42.664;23.368;2023-05-22T11:11:24;94749.22;;;22.85;55.25
61292;BME280;47165;42.664;23.368;2023-05-22T11:14:00;94737.88;;;23.00;50.94
61292;BME280;47165;42.664;23.368;2023-05-22T11:16:31;94745.47;;;23.27;49.38
61292;BME280;47165;42.664;23.368;2023-05-22T11:19:07;94754.41;;;23.03;50.02
61292;BME280;47165;42.664;23.368;2023-05-22T11:21:44;94788.50;;;23.08;55.46
61292;BME280;47165;42.664;23.368;2023-05-22T11:24:11;94781.50;;;22.49;58.59
61292;BME280;47165;42.664;23.368;2023-05-22T11:26:40;94787.06;;;21.97;53.60
61292;BME280;47165;42.664;23.368;2023-05-22T11:29:06;94796.16;;;21.78;54.86
61292;BME280;47165;42.664;23.368;2023-05-22T11:31:32;94786.78;;;20.97;57.10
61292;BME280;47165;42.664;23.368;2023-05-22T11:33:59;94794.28;;;20.76;57.73
61292;BME280;47165;42.664;23.368;2023-05-22T11:36:26;94798.53;;;20.33;54.87
61292;BME280;47165;42.664;23.368;2023-05-22T11:38:56;94802.81;;;19.70;56.31
61292;BME280;47165;42.664;23.368;2023-05-22T11:41:22;94820.44;;;19.71;56.85
61292;BME280;47165;42.664;23.368;2023-05-22T11:43:47;94816.66;;;19.64;58.64
61292;BME280;47165;42.664;23.368;2023-05-22T11:46:13;94820.00;;;19.66;58.16
61292;BME280;47165;42.664;23.368;2023-05-22T11:48:42;94813.16;;;19.73;58.15
61292;BME280;47165;42.664;23.368;2023-05-22T11:51:08;94809.25;;;19.67;56.63
61292;BME280;47165;42.664;23.368;2023-05-22T11:53:35;94809.34;;;19.85;55.49
61292;BME280;47165;42.664;23.368;2023-05-22T11:56:01;94816.78;;;20.00;56.68
61292;BME280;47165;42.664;23.368;2023-05-22T11:58:28;94821.38;;;19.98;54.07
61292;BME280;47165;42.664;23.368;2023-05-22T12:00:58;94806.88;;;19.74;53.12
61292;BME280;47165;42.664;23.368;2023-05-22T12:03:24;94823.00;;;19.81;55.63
61292;BME280;47165;42.664;23.368;2023-05-22T12:05:49;94821.91;;;19.83;55.48
61292;BME280;47165;42.664;23.368;2023-05-22T12:08:15;94827.56;;;19.88;54.70
61292;BME280;47165;42.664;23.368;2023-05-22T12:10:51;94823.28;;;19.87;55.61
61292;BME280;47165;42.664;23.368;2023-05-22T12:13:25;94816.75;;;19.82;53.17
61292;BME280;47165;42.664;23.368;2023-05-22T12:15:52;94801.56;;;19.74;53.83
61292;BME280;47165;42.664;23.368;2023-05-22T12:18:19;94809.53;;;19.74;53.80
61292;BME280;47165;42.664;23.368;2023-05-22T12:20:45;94808.44;;;19.67;54.84
61292;BME280;47165;42.664;23.368;2023-05-22T12:23:24;94805.97;;;19.56;53.09
61292;BME280;47165;42.664;23.368;2023-05-22T12:26:15;94806.28;;;19.53;54.20
61292;BME280;47165;42.664;23.368;2023-05-22T12:28:41;94801.13;;;19.51;54.74
61292;BME280;47165;42.664;23.368;2023-05-22T12:31:07;94799.00;;;19.55;56.04
61292;BME280;47165;42.664;23.368;2023-05-22T12:33:32;94801.75;;;19.63;56.71
61292;BME280;47165;42.664;23.368;2023-05-22T12:35:58;94795.13;;;19.49;57.66
61292;BME280;47165;42.664;23.368;2023-05-22T12:38:25;94794.09;;;19.60;57.03
61292;BME280;47165;42.664;23.368;2023-05-22T12:40:52;94786.94;;;19.70;57.90
61292;BME280;47165;42.664;23.368;2023-05-22T12:43:18;94786.84;;;19.89;57.25
61292;BME280;47165;42.664;23.368;2023-05-22T12:45:43;94787.09;;;20.14;56.03
61292;BME280;47165;42.664;23.368;2023-05-22T12:48:09;94790.41;;;20.34;56.75
61292;BME280;47165;42.664;23.368;2023-05-22T12:50:35;94790.19;;;20.45;53.96
61292;BME280;47165;42.664;23.368;2023-05-22T12:53:01;94796.19;;;20.65;54.82
61292;BME280;47165;42.664;23.368;2023-05-22T12:55:26;94794.28;;;20.76;57.32
61292;BME280;47165;42.664;23.368;2023-05-22T12:57:52;94801.16;;;20.86;57.71
61292;BME280;47165;42.664;23.368;2023-05-22T13:00:17;94793.91;;;20.97;57.78
61292;BME280;47165;42.664;23.368;2023-05-22T13:02:43;94798.75;;;21.01;58.76
61292;BME280;47165;42.664;23.368;2023-05-22T13:05:08;94794.22;;;21.20;59.25